Time;durP1;ratioP1;P1;durP2;ratioP2;P2;SDS_P1;SDS_P2;PMS_P1;PMS_P2;Temp;Humidity;BMP_temperature;BMP_pressure;BME280_temperature;BME280_humidity;BME280_pressure;Samples;Min_cycle;Max_cycle;Signal;HPM_P1;HPM_P2
2022/06/11 00:01:29;;;;;;;8.32;2.70;;;16.00;99.90;;;;;;5033538;28;20100;-47
2022/06/11 00:04:01;;;;;;;5.82;2.15;;;16.00;99.90;;;;;;5033008;28;20049;-50
2022/06/11 00:06:28;;;;;;;5.30;2.88;;;16.10;99.90;;;;;;5033486;28;20026;-50
2022/06/11 00:08:53;;;;;;;8.23;2.65;;;16.20;99.90;;;;;;5032095;28;20025;-49
2022/06/11 00:11:20;;;;;;;7.72;2.58;;;16.20;99.90;;;;;;5033185;28;20038;-50
2022/06/11 00:13:46;;;;;;;6.03;2.50;;;16.20;99.90;;;;;;5032585;28;20164;-48
2022/06/11 00:16:13;;;;;;;5.38;3.17;;;16.20;99.90;;;;;;5033260;28;20524;-51
2022/06/11 00:18:42;;;;;;;3.88;3.10;;;16.20;99.90;;;;;;5032253;28;20030;-49
2022/06/11 00:21:09;;;;;;;5.68;2.67;;;16.20;99.90;;;;;;5034056;28;20027;-49
2022/06/11 00:23:35;;;;;;;2.83;2.33;;;16.20;99.90;;;;;;5038180;28;20022;-47
2022/06/11 00:26:03;;;;;;;9.63;3.00;;;16.30;99.90;;;;;;5038352;28;20021;-49
2022/06/11 00:28:29;;;;;;;7.55;2.67;;;16.40;99.90;;;;;;5039751;28;20032;-49
2022/06/11 00:30:55;;;;;;;5.47;3.03;;;16.40;99.90;;;;;;5039473;28;20029;-49
2022/06/11 00:33:21;;;;;;;5.95;2.47;;;16.40;99.90;;;;;;5039380;28;20067;-49
2022/06/11 00:35:47;;;;;;;4.70;2.78;;;16.30;99.90;;;;;;5038720;28;20040;-47
2022/06/11 00:38:14;;;;;;;6.55;3.00;;;16.40;99.90;;;;;;5039398;28;20034;-48
2022/06/11 00:40:42;;;;;;;8.63;2.65;;;16.40;99.90;;;;;;5039491;28;20028;-51
2022/06/11 00:43:09;;;;;;;5.68;2.30;;;16.40;99.90;;;;;;5037959;28;20061;-47
2022/06/11 00:46:01;;;;;;;6.90;3.00;;;16.40;99.90;;;;;;5039693;28;20029;-49
2022/06/11 00:48:35;;;;;;;;;;;16.40;99.90;;;;;;5040139;28;20022;-51
2022/06/11 00:51:09;;;;;;;4.68;2.60;;;16.40;99.90;;;;;;5039452;28;20406;-49
2022/06/11 00:53:50;;;;;;;8.95;2.97;;;16.50;99.90;;;;;;5039558;28;20037;-49
2022/06/11 00:56:38;;;;;;;5.18;2.70;;;16.50;99.90;;;;;;5038114;28;20029;-49
2022/06/11 00:59:09;;;;;;;7.13;2.88;;;16.50;99.90;;;;;;5038613;28;20040;-51
2022/06/11 01:01:34;;;;;;;8.52;3.20;;;16.40;99.90;;;;;;5037994;28;20026;-50
2022/06/11 01:04:02;;;;;;;10.52;3.10;;;16.50;99.90;;;;;;5038481;28;20071;-48
2022/06/11 01:06:36;;;;;;;7.47;3.03;;;16.50;99.90;;;;;;5039568;28;20361;-49
2022/06/11 01:09:11;;;;;;;16.13;3.53;;;16.60;99.90;;;;;;5038106;28;20033;-49
2022/06/11 01:12:13;;;;;;;8.60;3.15;;;16.50;99.90;;;;;;5038074;28;20496;-47
2022/06/11 01:14:44;;;;;;;5.80;3.17;;;16.40;99.90;;;;;;5039134;28;20017;-48
2022/06/11 01:17:27;;;;;;;7.18;3.17;;;16.40;99.90;;;;;;5038422;28;20041;-47
2022/06/11 01:20:26;;;;;;;13.70;3.30;;;16.40;99.90;;;;;;5039068;28;20028;-47
2022/06/11 01:23:29;;;;;;;8.75;3.47;;;16.20;99.90;;;;;;5037854;28;20022;-49
2022/06/11 01:26:32;;;;;;;17.45;3.17;;;16.20;99.90;;;;;;5039378;28;20025;-48
2022/06/11 01:29:26;;;;;;;10.10;3.45;;;16.10;99.90;;;;;;5038125;28;20022;-47
2022/06/11 01:32:00;;;;;;;12.32;3.25;;;16.10;99.90;;;;;;5037914;28;20026;-49
2022/06/11 01:34:35;;;;;;;8.15;3.20;;;16.20;99.90;;;;;;5033682;28;20072;-47
2022/06/11 01:37:20;;;;;;;6.28;2.70;;;16.20;99.90;;;;;;5035169;28;20029;-50
2022/06/11 01:40:10;;;;;;;7.57;2.63;;;16.10;99.90;;;;;;5035389;28;20075;-47
2022/06/11 01:42:45;;;;;;;8.75;2.80;;;16.10;99.90;;;;;;5036072;28;20030;-48
2022/06/11 01:45:20;;;;;;;6.13;2.70;;;16.20;99.90;;;;;;5034691;28;20132;-47
2022/06/11 01:47:47;;;;;;;5.45;2.83;;;16.20;99.90;;;;;;5035713;28;20102;-49
2022/06/11 01:50:17;;;;;;;5.10;3.22;;;16.20;99.90;;;;;;5035563;28;20075;-47
2022/06/11 01:53:07;;;;;;;10.02;2.38;;;16.20;99.90;;;;;;5035621;28;20022;-51
2022/06/11 01:55:51;;;;;;;7.20;3.08;;;16.30;99.90;;;;;;5034288;28;20036;-47
2022/06/11 01:58:50;;;;;;;6.57;2.70;;;16.30;99.90;;;;;;5035420;28;20104;-47
2022/06/11 02:01:29;;;;;;;4.32;2.22;;;16.40;99.90;;;;;;5035532;28;20156;-47
2022/06/11 02:04:32;;;;;;;9.43;3.33;;;16.40;99.90;;;;;;5034125;28;20492;-50
2022/06/11 02:07:11;;;;;;;6.82;3.22;;;16.50;99.90;;;;;;5034131;28;20108;-47
2022/06/11 02:10:07;;;;;;;10.90;3.88;;;16.50;99.90;;;;;;5034225;28;20392;-47
2022/06/11 02:13:01;;;;;;;8.88;3.00;;;16.50;99.90;;;;;;5034540;28;20025;-50
2022/06/11 02:15:39;;;;;;;10.98;2.92;;;16.50;99.90;;;;;;5035446;28;20031;-50
2022/06/11 02:18:12;;;;;;;12.07;3.30;;;16.50;99.90;;;;;;5033932;28;20116;-47
2022/06/11 02:21:13;;;;;;;10.95;3.80;;;16.50;99.90;;;;;;5035768;28;20072;-47
2022/06/11 02:23:46;;;;;;;6.20;2.88;;;16.50;99.90;;;;;;5030023;28;20033;-52
2022/06/11 02:26:19;;;;;;;10.43;2.90;;;16.50;99.90;;;;;;5034957;28;20476;-49
2022/06/11 02:28:48;;;;;;;8.07;3.60;;;16.50;99.90;;;;;;5034893;28;20053;-48
2022/06/11 02:31:23;;;;;;;12.57;3.60;;;16.50;99.90;;;;;;5035468;28;20021;-50
2022/06/11 02:33:49;;;;;;;10.10;3.20;;;16.60;99.90;;;;;;5033614;28;20022;-48
2022/06/11 02:36:17;;;;;;;7.78;3.25;;;16.60;99.90;;;;;;5034729;28;20480;-50
2022/06/11 02:38:43;;;;;;;10.00;3.33;;;16.60;99.90;;;;;;5033473;28;20060;-48
2022/06/11 02:41:21;;;;;;;9.18;3.60;;;16.60;99.90;;;;;;5033840;28;20053;-48
2022/06/11 02:43:47;;;;;;;14.05;3.53;;;16.60;99.90;;;;;;5034277;28;20029;-50
2022/06/11 02:48:57;;;;;;;9.27;3.33;;;16.50;99.90;;;;;;5035079;28;20079;-49
2022/06/11 02:51:26;;;;;;;6.13;3.50;;;16.60;99.90;;;;;;5034550;28;20025;-51
2022/06/11 02:53:52;;;;;;;5.47;3.05;;;16.70;99.90;;;;;;5033114;28;20022;-47
2022/06/11 02:56:18;;;;;;;5.50;2.83;;;16.70;99.90;;;;;;5033620;28;20021;-51
2022/06/11 02:58:44;;;;;;;11.18;3.38;;;16.70;99.90;;;;;;5034679;28;20029;-49
2022/06/11 03:01:10;;;;;;;11.43;3.70;;;16.70;99.90;;;;;;5034402;28;20025;-47
2022/06/11 03:03:37;;;;;;;12.68;3.90;;;16.70;99.90;;;;;;5034460;28;20026;-48
2022/06/11 03:06:03;;;;;;;10.57;4.13;;;16.60;99.90;;;;;;5032923;28;20056;-50
2022/06/11 03:08:29;;;;;;;8.68;3.55;;;16.40;99.90;;;;;;5033969;28;20471;-47
2022/06/11 03:10:55;;;;;;;6.60;3.50;;;16.20;99.90;;;;;;5034011;28;20022;-47
2022/06/11 03:13:22;;;;;;;8.98;3.83;;;16.20;99.90;;;;;;5032666;28;20025;-49
2022/06/11 03:15:48;;;;;;;9.32;3.90;;;16.10;99.90;;;;;;5032745;28;20037;-48
2022/06/11 03:18:14;;;;;;;8.20;3.53;;;16.10;99.90;;;;;;5033918;28;20029;-47
2022/06/11 03:20:40;;;;;;;7.40;3.40;;;16.10;99.90;;;;;;5032669;28;20029;-47
2022/06/11 03:23:07;;;;;;;6.53;3.17;;;16.10;99.90;;;;;;5033682;28;20021;-47
2022/06/11 03:25:33;;;;;;;11.38;3.55;;;16.10;99.90;;;;;;5032829;28;20365;-47
2022/06/11 03:28:04;;;;;;;10.85;3.42;;;16.00;99.90;;;;;;5033309;28;20026;-47
2022/06/11 03:30:30;;;;;;;7.70;3.40;;;16.00;99.90;;;;;;5032456;28;20029;-49
2022/06/11 03:32:56;;;;;;;14.20;3.88;;;16.10;99.90;;;;;;5033559;28;20033;-47
2022/06/11 03:35:21;;;;;;;13.23;4.07;;;16.20;99.90;;;;;;5033982;28;20025;-47
2022/06/11 03:37:47;;;;;;;3.92;3.50;;;16.10;99.90;;;;;;5032717;28;20093;-47
2022/06/11 03:40:13;;;;;;;8.00;3.40;;;16.10;99.90;;;;;;5032376;28;20021;-47
2022/06/11 03:42:39;;;;;;;9.32;3.92;;;16.10;99.90;;;;;;5033282;28;20036;-52
2022/06/11 03:45:06;;;;;;;7.63;3.30;;;16.20;99.90;;;;;;5033475;28;20048;-47
2022/06/11 03:47:33;;;;;;;11.43;3.75;;;16.30;99.90;;;;;;5032233;28;20036;-47
2022/06/11 03:49:59;;;;;;;13.68;3.30;;;16.30;99.90;;;;;;5033398;28;20036;-49
2022/06/11 03:52:27;;;;;;;9.38;4.38;;;16.40;99.90;;;;;;5033245;28;20022;-51
2022/06/11 03:54:55;;;;;;;9.93;4.15;;;16.40;99.90;;;;;;5033273;28;20021;-48
2022/06/11 03:57:20;;;;;;;12.15;4.53;;;16.30;99.90;;;;;;5031434;28;20037;-47
2022/06/11 03:59:46;;;;;;;6.60;3.92;;;16.20;99.90;;;;;;5033202;28;20017;-47
2022/06/11 04:02:12;;;;;;;11.02;3.80;;;16.40;99.90;;;;;;5031839;28;20388;-47
2022/06/11 04:04:37;;;;;;;7.13;3.88;;;16.50;99.90;;;;;;5033410;28;20040;-51
2022/06/11 04:07:04;;;;;;;8.07;3.40;;;16.60;99.90;;;;;;5031965;28;20051;-49
2022/06/11 04:09:36;;;;;;;7.25;3.33;;;16.70;99.90;;;;;;5033078;28;20096;-47
2022/06/11 04:12:04;;;;;;;8.07;3.45;;;16.70;99.90;;;;;;5031717;28;20026;-50
2022/06/11 04:14:30;;;;;;;10.07;4.20;;;16.90;99.90;;;;;;5032977;28;20511;-50
2022/06/11 04:17:01;;;;;;;10.52;3.28;;;16.80;99.90;;;;;;5032964;28;20049;-50
2022/06/11 04:19:30;;;;;;;11.10;3.95;;;16.90;99.90;;;;;;5031746;28;20021;-48
2022/06/11 04:21:57;;;;;;;7.65;3.80;;;17.10;99.90;;;;;;5032982;28;20022;-49
2022/06/11 04:24:24;;;;;;;7.28;4.03;;;17.10;99.90;;;;;;5033040;28;20025;-49
2022/06/11 04:26:53;;;;;;;6.30;3.60;;;17.20;99.90;;;;;;5033137;28;20058;-52
2022/06/11 04:29:22;;;;;;;12.55;3.42;;;17.20;99.90;;;;;;5031689;28;20033;-47
2022/06/11 04:31:51;;;;;;;5.10;3.67;;;17.20;99.90;;;;;;5032998;28;20021;-50
2022/06/11 04:34:17;;;;;;;7.40;4.40;;;17.30;99.90;;;;;;5032071;28;20022;-47
2022/06/11 04:36:45;;;;;;;10.55;3.65;;;17.20;99.90;;;;;;5033220;28;20025;-48
2022/06/11 04:39:13;;;;;;;10.27;3.75;;;17.20;99.90;;;;;;5033120;28;20116;-48
2022/06/11 04:41:38;;;;;;;5.07;3.38;;;17.50;99.90;;;;;;5033138;28;20029;-52
2022/06/11 04:44:04;;;;;;;8.90;3.22;;;17.70;99.90;;;;;;5033195;28;20030;-53
2022/06/11 04:46:30;;;;;;;6.68;3.75;;;18.10;99.90;;;;;;5032099;28;20087;-51
2022/06/11 04:48:56;;;;;;;9.50;3.03;;;18.30;99.90;;;;;;5033317;28;20030;-48
2022/06/11 04:51:22;;;;;;;6.18;3.47;;;18.30;99.90;;;;;;5033260;28;20028;-48
2022/06/11 04:53:48;;;;;;;11.15;4.13;;;18.50;99.90;;;;;;5031806;28;20079;-48
2022/06/11 04:56:17;;;;;;;9.15;4.18;;;18.50;99.90;;;;;;5031682;28;20025;-47
2022/06/11 04:58:44;;;;;;;10.98;4.25;;;18.40;99.90;;;;;;5032919;28;20076;-48
2022/06/11 05:01:10;;;;;;;5.57;3.35;;;18.40;99.90;;;;;;5032931;28;20017;-48
2022/06/11 05:03:35;;;;;;;12.13;3.95;;;18.40;99.90;;;;;;5032814;28;20480;-47
2022/06/11 05:06:01;;;;;;;8.15;3.65;;;18.30;99.90;;;;;;5032492;28;20091;-48
2022/06/11 05:08:27;;;;;;;6.03;4.00;;;18.20;99.90;;;;;;5033517;28;20423;-47
2022/06/11 05:10:53;;;;;;;7.35;3.60;;;18.00;99.90;;;;;;5035459;28;20040;-47
2022/06/11 05:13:18;;;;;;;7.35;3.65;;;18.00;99.90;;;;;;5035270;28;20025;-47
2022/06/11 05:15:47;;;;;;;7.75;4.25;;;18.10;99.90;;;;;;5035395;28;20053;-47
2022/06/11 05:18:14;;;;;;;8.75;3.22;;;18.30;99.90;;;;;;5036432;28;20025;-48
2022/06/11 05:20:41;;;;;;;5.45;3.17;;;18.50;99.90;;;;;;5035532;28;20064;-49
2022/06/11 05:23:07;;;;;;;7.32;3.78;;;18.80;99.90;;;;;;5036304;28;20030;-48
2022/06/11 05:25:35;;;;;;;9.50;3.67;;;19.10;99.90;;;;;;5035220;28;20060;-48
2022/06/11 05:28:02;;;;;;;8.23;3.97;;;19.30;99.90;;;;;;5035403;28;20098;-47
2022/06/11 05:30:30;;;;;;;9.68;3.50;;;19.50;99.90;;;;;;5034957;28;20029;-47
2022/06/11 05:32:56;;;;;;;8.10;3.20;;;19.70;99.90;;;;;;5034791;28;20113;-47
2022/06/11 05:35:25;;;;;;;8.57;3.35;;;19.90;99.90;;;;;;5035211;28;20068;-48
2022/06/11 05:37:54;;;;;;;6.57;3.30;;;19.90;99.90;;;;;;5034882;28;20091;-50
2022/06/11 05:40:24;;;;;;;8.38;3.38;;;19.80;99.90;;;;;;5036356;28;20104;-47
2022/06/11 05:42:50;;;;;;;6.35;3.40;;;19.80;99.90;;;;;;5034639;28;20025;-47
2022/06/11 05:45:24;;;;;;;7.18;3.58;;;20.10;99.90;;;;;;5034722;28;20473;-50
2022/06/11 05:47:54;;;;;;;8.57;3.08;;;20.40;99.90;;;;;;5036493;28;20077;-47
2022/06/11 05:50:24;;;;;;;7.90;3.00;;;20.60;99.90;;;;;;5034601;28;20052;-47
2022/06/11 05:52:52;;;;;;;6.53;2.80;;;20.30;99.90;;;;;;5036043;28;20089;-46
2022/06/11 05:55:21;;;;;;;4.68;2.80;;;20.10;99.90;;;;;;5034867;28;20025;-46
2022/06/11 05:57:49;;;;;;;4.97;2.88;;;20.50;99.90;;;;;;5034285;28;20032;-47
2022/06/11 06:00:17;;;;;;;7.50;3.33;;;21.10;99.90;;;;;;5034567;28;20033;-47
2022/06/11 06:02:44;;;;;;;4.75;2.60;;;21.20;99.90;;;;;;5035520;28;20028;-48
2022/06/11 06:05:13;;;;;;;6.40;3.67;;;21.80;99.90;;;;;;5035266;28;20045;-47
2022/06/11 06:07:38;;;;;;;8.13;4.25;;;22.70;99.90;;;;;;5034659;28;20032;-48
2022/06/11 06:10:04;;;;;;;5.13;2.50;;;23.40;99.90;;;;;;5035536;28;20029;-47
2022/06/11 06:12:32;;;;;;;4.55;2.28;;;24.00;99.90;;;;;;5035687;28;20044;-45
2022/06/11 06:15:09;;;;;;;7.35;2.72;;;24.50;99.90;;;;;;5035469;28;20108;-47
2022/06/11 06:17:35;;;;;;;4.40;2.28;;;24.90;99.90;;;;;;5034072;28;20440;-45
2022/06/11 06:20:02;;;;;;;11.20;2.95;;;25.10;99.90;;;;;;5033680;28;20093;-49
2022/06/11 06:22:28;;;;;;;5.38;2.53;;;25.20;99.90;;;;;;5035391;28;20021;-46
2022/06/11 06:24:53;;;;;;;4.00;1.92;;;25.10;99.90;;;;;;5034339;28;20167;-47
2022/06/11 06:27:19;;;;;;;4.47;2.08;;;25.10;99.90;;;;;;5035523;28;20032;-47
2022/06/11 06:29:44;;;;;;;7.22;2.33;;;25.10;99.90;;;;;;5033975;28;20053;-50
2022/06/11 06:32:10;;;;;;;5.32;2.38;;;24.90;99.90;;;;;;5035094;28;20044;-47
2022/06/11 06:34:36;;;;;;;5.38;2.33;;;25.00;99.90;;;;;;5034149;28;20030;-49
2022/06/11 06:37:01;;;;;;;4.88;1.90;;;25.10;99.90;;;;;;5035397;28;20033;-45
2022/06/11 06:39:27;;;;;;;6.88;2.60;;;25.20;99.90;;;;;;5035509;28;20032;-45
2022/06/11 06:41:52;;;;;;;5.45;2.88;;;25.20;99.90;;;;;;5034112;28;20055;-47
2022/06/11 06:44:18;;;;;;;7.80;2.85;;;25.10;99.90;;;;;;5034097;28;20037;-47
2022/06/11 06:46:44;;;;;;;5.45;2.45;;;24.80;99.90;;;;;;5033634;28;20025;-47
2022/06/11 06:49:10;;;;;;;6.53;3.40;;;24.70;99.90;;;;;;5033877;28;20026;-47
2022/06/11 06:51:35;;;;;;;5.82;2.90;;;24.20;99.90;;;;;;5033919;28;20365;-47
2022/06/11 06:54:02;;;;;;;5.20;3.05;;;23.90;99.90;;;;;;5033774;28;20029;-47
2022/06/11 06:56:33;;;;;;;10.23;3.13;;;23.60;99.90;;;;;;5033695;28;20025;-47
2022/06/11 06:59:02;;;;;;;6.32;3.38;;;23.70;99.90;;;;;;5033426;28;20021;-48
2022/06/11 07:01:28;;;;;;;4.82;2.78;;;23.50;99.90;;;;;;5033498;28;20026;-49
2022/06/11 07:03:55;;;;;;;5.30;2.60;;;23.20;99.90;;;;;;5033265;28;20368;-47
2022/06/11 07:06:21;;;;;;;10.90;3.58;;;23.30;99.90;;;;;;5034411;28;20045;-51
2022/06/11 07:08:52;;;;;;;7.88;2.45;;;23.40;99.90;;;;;;5034535;28;20021;-52
2022/06/11 07:11:18;;;;;;;4.15;2.90;;;23.50;99.90;;;;;;5033314;28;20060;-49
2022/06/11 07:13:45;;;;;;;8.00;2.40;;;23.60;99.90;;;;;;5033069;28;20030;-51
2022/06/11 07:16:13;;;;;;;7.90;2.50;;;23.80;99.90;;;;;;5033108;28;20136;-53
2022/06/11 07:18:44;;;;;;;6.68;1.85;;;23.80;99.90;;;;;;5033085;28;20029;-53
2022/06/11 07:21:18;;;;;;;5.70;2.13;;;24.00;99.90;;;;;;5033427;28;20025;-52
2022/06/11 07:23:50;;;;;;;4.57;2.08;;;24.20;99.90;;;;;;5034409;28;20036;-55
2022/06/11 07:26:31;;;;;;;2.92;1.80;;;24.30;99.90;;;;;;5034195;28;20029;-53
2022/06/11 07:29:04;;;;;;;6.17;2.23;;;24.40;99.90;;;;;;5034021;28;20025;-55
2022/06/11 07:31:31;;;;;;;6.20;2.63;;;24.60;99.90;;;;;;5033298;28;20022;-52
2022/06/11 07:33:57;;;;;;;10.55;2.47;;;24.90;99.90;;;;;;5034012;28;20111;-54
2022/06/11 07:36:23;;;;;;;4.57;2.30;;;25.10;99.90;;;;;;5032658;28;20029;-55
2022/06/11 07:38:49;;;;;;;5.40;2.05;;;25.30;99.90;;;;;;5032923;28;20037;-53
2022/06/11 07:41:14;;;;;;;7.25;2.20;;;25.60;99.90;;;;;;5033015;28;20028;-55
2022/06/11 07:43:40;;;;;;;6.53;2.75;;;26.00;99.90;;;;;;5033749;28;20033;-56
2022/06/11 07:46:06;;;;;;;5.35;1.90;;;26.30;99.90;;;;;;5032525;28;20025;-53
2022/06/11 07:48:31;;;;;;;6.80;2.47;;;26.60;99.90;;;;;;5033057;28;20056;-55
2022/06/11 07:50:57;;;;;;;6.60;2.38;;;26.90;99.90;;;;;;5034100;28;20037;-52
2022/06/11 07:53:23;;;;;;;7.07;2.00;;;27.20;99.90;;;;;;5033635;28;20048;-53
2022/06/11 07:55:51;;;;;;;4.78;2.20;;;27.30;99.90;;;;;;5032340;28;20052;-50
2022/06/11 07:58:20;;;;;;;4.15;2.00;;;27.20;99.90;;;;;;5032403;28;20037;-56
2022/06/11 08:00:49;;;;;;;5.68;2.00;;;27.20;99.90;;;;;;5033937;28;20035;-54
2022/06/11 08:03:15;;;;;;;7.00;2.13;;;27.40;99.90;;;;;;5032736;28;20029;-56
2022/06/11 08:05:42;;;;;;;3.72;1.58;;;27.70;99.90;;;;;;5033525;28;20033;-53
2022/06/11 08:08:08;;;;;;;4.65;2.00;;;28.10;99.90;;;;;;5032615;28;20026;-57
2022/06/11 08:10:36;;;;;;;8.60;1.88;;;28.60;99.90;;;;;;5032529;28;20051;-57
2022/06/11 08:13:02;;;;;;;6.65;2.10;;;28.90;99.90;;;;;;5033305;28;20026;-53
2022/06/11 08:15:28;;;;;;;3.58;1.70;;;29.30;99.90;;;;;;5032662;28;20049;-56
2022/06/11 08:17:54;;;;;;;4.25;1.92;;;30.00;99.90;;;;;;5032341;28;20111;-54
2022/06/11 08:20:23;;;;;;;5.47;1.70;;;30.50;99.90;;;;;;5033345;28;20029;-55
2022/06/11 08:22:49;;;;;;;4.35;1.80;;;31.00;99.90;;;;;;5032023;28;20017;-55
2022/06/11 08:25:16;;;;;;;8.25;1.92;;;31.40;99.90;;;;;;5032996;28;20018;-55
2022/06/11 08:27:43;;;;;;;2.28;1.33;;;31.60;99.90;;;;;;5032064;28;20025;-55
2022/06/11 08:30:11;;;;;;;3.05;1.50;;;32.00;98.30;;;;;;5033315;28;20483;-56
2022/06/11 08:32:36;;;;;;;7.20;2.08;;;32.20;98.50;;;;;;5033141;28;20503;-57
2022/06/11 08:35:02;;;;;;;5.05;2.10;;;33.00;96.30;;;;;;5033207;28;20053;-51
2022/06/11 08:37:28;;;;;;;4.15;1.90;;;33.00;95.50;;;;;;5032215;28;20074;-54
2022/06/11 08:39:54;;;;;;;6.38;1.55;;;33.00;94.90;;;;;;5031977;28;20026;-60
2022/06/11 08:42:35;;;;;;;4.88;1.67;;;33.30;93.50;;;;;;5032965;28;20413;-60
2022/06/11 08:45:25;;;;;;;4.53;2.05;;;33.20;92.70;;;;;;5036080;28;20516;-59
2022/06/11 08:48:09;;;;;;;7.50;2.03;;;32.20;92.80;;;;;;5035635;28;20063;-58
2022/06/11 08:50:40;;;;;;;4.63;1.58;;;32.10;92.50;;;;;;5036473;28;20025;-56
2022/06/11 08:53:06;;;;;;;3.65;1.45;;;31.90;92.30;;;;;;5035647;28;20026;-60
2022/06/11 08:55:37;;;;;;;6.40;1.65;;;32.90;92.60;;;;;;5036014;28;20033;-58
2022/06/11 08:58:21;;;;;;;;;;;33.80;91.20;;;;;;5037259;28;20065;-58
2022/06/11 09:01:06;;;;;;;5.07;1.50;;;35.30;88.00;;;;;;5035580;28;19991;-53
2022/06/11 09:07:20;;;;;;;4.88;1.80;;;37.10;82.20;;;;;;5037001;28;20208;-56
2022/06/11 09:10:01;;;;;;;2.60;1.40;;;36.40;78.00;;;;;;5037058;28;20025;-54
2022/06/11 09:12:59;;;;;;;2.47;1.60;;;36.60;80.60;;;;;;5036609;28;20033;-56
2022/06/11 09:15:52;;;;;;;4.05;1.77;;;37.60;77.30;;;;;;5035713;28;20545;-57
2022/06/11 09:18:45;;;;;;;4.60;1.83;;;37.90;74.10;;;;;;5036748;28;20079;-59
2022/06/11 09:21:26;;;;;;;5.82;1.65;;;38.10;72.80;;;;;;5036494;28;20134;-54
2022/06/11 09:24:10;;;;;;;4.72;1.63;;;37.40;73.80;;;;;;5036390;28;20029;-54
2022/06/11 09:26:42;;;;;;;6.13;1.83;;;36.90;73.80;;;;;;5035259;28;20542;-54
2022/06/11 09:29:20;;;;;;;3.08;1.33;;;36.00;75.20;;;;;;5035982;28;20067;-53
2022/06/11 09:31:51;;;;;;;9.45;1.80;;;36.00;75.60;;;;;;5036296;28;20036;-51
2022/06/11 09:34:23;;;;;;;3.22;1.15;;;36.20;75.80;;;;;;5035190;28;20050;-52
2022/06/11 09:36:54;;;;;;;6.93;1.67;;;36.40;74.00;;;;;;5036460;28;20057;-51
2022/06/11 09:39:37;;;;;;;4.78;1.50;;;36.30;73.50;;;;;;5036182;28;20038;-52
2022/06/11 09:42:37;;;;;;;4.47;2.20;;;36.30;71.40;;;;;;5034850;28;20026;-51
2022/06/11 09:45:17;;;;;;;5.18;2.00;;;34.90;73.60;;;;;;5034807;28;20063;-51
2022/06/11 09:48:02;;;;;;;4.67;1.63;;;34.60;74.60;;;;;;5037426;28;20396;-53
2022/06/11 09:50:38;;;;;;;3.92;1.42;;;34.80;73.90;;;;;;5036017;28;20029;-54
2022/06/11 09:53:16;;;;;;;5.40;2.17;;;35.20;74.40;;;;;;5035812;28;20499;-53
2022/06/11 09:56:03;;;;;;;6.82;1.85;;;35.30;74.00;;;;;;5035460;28;20392;-50
2022/06/11 09:58:40;;;;;;;6.32;2.08;;;35.20;73.80;;;;;;5035739;28;20026;-55
2022/06/11 10:01:15;;;;;;;5.22;1.75;;;34.90;76.20;;;;;;5034533;28;20080;-57
2022/06/11 10:03:50;;;;;;;4.53;1.73;;;34.90;74.60;;;;;;5036941;28;20057;-48
2022/06/11 10:06:53;;;;;;;3.85;1.25;;;35.30;74.40;;;;;;5044903;28;20025;-49
2022/06/11 10:09:25;;;;;;;5.05;1.60;;;36.30;72.90;;;;;;5037889;28;20025;-48
2022/06/11 10:12:07;;;;;;;6.07;2.35;;;37.10;72.30;;;;;;5038187;28;20030;-47
2022/06/11 10:15:03;;;;;;;3.97;1.45;;;37.20;70.40;;;;;;5037180;28;20033;-47
2022/06/11 10:17:37;;;;;;;4.45;1.58;;;36.50;72.90;;;;;;5035231;28;20029;-47
2022/06/11 10:20:14;;;;;;;5.47;1.33;;;36.00;71.50;;;;;;5036366;28;20081;-46
2022/06/11 10:23:10;;;;;;;7.45;1.20;;;36.20;71.90;;;;;;5035980;28;20026;-45
2022/06/11 10:25:48;;;;;;;5.55;1.45;;;35.50;70.50;;;;;;5036857;28;20022;-46
2022/06/11 10:28:26;;;;;;;7.10;1.38;;;34.80;72.70;;;;;;5036788;28;20026;-51
2022/06/11 10:30:57;;;;;;;3.90;1.55;;;34.00;73.20;;;;;;5034291;28;20079;-50
2022/06/11 10:33:25;;;;;;;3.53;1.58;;;34.00;74.30;;;;;;5034971;28;20021;-48
2022/06/11 10:36:26;;;;;;;7.60;1.70;;;34.20;73.30;;;;;;5033889;28;20033;-49
2022/06/11 10:39:00;;;;;;;3.95;1.77;;;34.40;73.40;;;;;;5033877;28;20560;-49
2022/06/11 10:41:32;;;;;;;2.58;1.30;;;34.30;75.10;;;;;;5036272;28;20044;-47
2022/06/11 10:44:24;;;;;;;4.55;1.55;;;33.90;73.90;;;;;;5033853;28;20116;-47
2022/06/11 10:46:52;;;;;;;4.47;1.58;;;33.50;74.10;;;;;;5034161;28;20072;-47
2022/06/11 10:49:22;;;;;;;3.17;1.55;;;33.30;75.10;;;;;;5034911;28;20388;-46
2022/06/11 10:52:26;;;;;;;4.78;1.67;;;33.00;74.30;;;;;;5035238;28;20151;-48
2022/06/11 10:54:52;;;;;;;5.25;1.40;;;32.60;74.50;;;;;;5033574;28;20033;-46
2022/06/11 10:57:25;;;;;;;4.55;1.70;;;32.30;75.50;;;;;;5034168;28;20095;-46
2022/06/11 11:00:18;;;;;;;5.50;2.17;;;31.80;75.80;;;;;;5034782;28;20022;-46
2022/06/11 11:02:56;;;;;;;3.75;1.15;;;31.50;77.30;;;;;;5033322;28;20022;-46
2022/06/11 11:05:22;;;;;;;4.45;3.58;;;31.10;78.80;;;;;;5034899;28;20092;-47
2022/06/11 11:08:05;;;;;;;3.08;1.88;;;31.00;79.10;;;;;;5034310;28;20033;-46
2022/06/11 11:10:34;;;;;;;4.07;1.40;;;30.80;78.90;;;;;;5034174;28;20202;-46
2022/06/11 11:13:03;;;;;;;4.55;1.50;;;30.70;79.80;;;;;;5033965;28;20021;-46
2022/06/11 11:15:38;;;;;;;2.72;1.20;;;30.60;79.90;;;;;;5034272;28;20026;-46
2022/06/11 11:18:18;;;;;;;2.22;1.55;;;30.60;80.50;;;;;;5034274;28;20029;-51
2022/06/11 11:20:47;;;;;;;4.22;2.67;;;30.60;79.50;;;;;;5034539;28;20025;-46
2022/06/11 11:23:38;;;;;;;6.90;4.97;;;30.50;79.50;;;;;;5034014;28;20021;-46
2022/06/11 11:26:10;;;;;;;;;;;30.20;80.20;;;;;;5033271;28;20028;-46
2022/06/11 11:28:53;;;;;;;3.05;1.58;;;30.00;81.10;;;;;;5032810;28;19944;-47
2022/06/11 11:31:27;;;;;;;5.53;1.40;;;29.90;81.30;;;;;;5033851;28;20025;-46
2022/06/11 11:34:03;;;;;;;3.13;1.17;;;29.80;81.10;;;;;;5033947;28;20032;-46
2022/06/11 11:36:30;;;;;;;1.85;1.02;;;29.80;81.00;;;;;;5033940;28;20022;-48
2022/06/11 11:39:27;;;;;;;2.60;1.50;;;29.80;82.00;;;;;;5032445;28;20025;-46
2022/06/11 11:42:10;;;;;;;2.30;1.33;;;29.90;80.80;;;;;;5033700;28;20391;-46
2022/06/11 11:44:46;;;;;;;4.55;1.38;;;29.90;81.10;;;;;;5032454;28;20025;-46
2022/06/11 11:47:18;;;;;;;4.50;1.48;;;30.00;82.80;;;;;;5033680;28;20021;-48
2022/06/11 11:49:51;;;;;;;2.00;1.50;;;30.00;82.10;;;;;;5032460;28;20524;-51
2022/06/11 11:52:20;;;;;;;2.85;1.30;;;30.20;81.50;;;;;;5033233;28;20025;-46
2022/06/11 11:55:32;;;;;;;4.38;1.10;;;30.10;80.50;;;;;;5033629;28;20495;-46
2022/06/11 11:58:21;;;;;;;2.65;1.10;;;30.10;79.20;;;;;;5026711;28;20044;-46
2022/06/11 12:01:06;;;;;;;1.73;1.00;;;30.10;81.10;;;;;;5033604;28;20025;-46
2022/06/11 12:03:42;;;;;;;4.53;1.33;;;30.10;79.70;;;;;;5033466;28;20032;-46
2022/06/11 12:06:13;;;;;;;3.15;1.33;;;30.10;82.60;;;;;;5032261;28;20033;-48
2022/06/11 12:08:47;;;;;;;2.72;1.30;;;30.10;83.70;;;;;;5033504;28;20026;-47
2022/06/11 12:11:32;;;;;;;3.60;1.20;;;29.80;84.60;;;;;;5033892;28;20082;-46
2022/06/11 12:14:10;;;;;;;2.35;1.13;;;29.60;83.00;;;;;;5032033;28;20030;-46
2022/06/11 12:16:40;;;;;;;3.35;1.17;;;29.40;84.00;;;;;;5032646;28;20030;-49
2022/06/11 12:19:20;;;;;;;2.95;1.10;;;29.40;81.40;;;;;;5032970;28;20025;-46
2022/06/11 12:22:09;;;;;;;4.15;1.15;;;29.60;82.10;;;;;;5033474;28;20100;-46
2022/06/11 12:24:45;;;;;;;5.00;1.05;;;29.60;81.60;;;;;;5032040;28;20030;-46
2022/06/11 12:27:20;;;;;;;4.18;1.10;;;29.60;82.30;;;;;;5032027;28;20072;-46
2022/06/11 12:29:52;;;;;;;3.53;1.13;;;29.70;79.70;;;;;;5033232;28;20022;-46
2022/06/11 12:32:27;;;;;;;4.75;1.13;;;29.80;81.60;;;;;;5031972;28;20025;-46
2022/06/11 12:34:53;;;;;;;4.32;1.35;;;29.80;82.90;;;;;;5032172;28;20041;-47
2022/06/11 12:37:39;;;;;;;5.15;1.80;;;29.60;85.20;;;;;;5032173;28;20032;-50
2022/06/11 12:40:31;;;;;;;2.80;1.42;;;29.40;86.70;;;;;;5033344;28;20030;-46
2022/06/11 12:43:12;;;;;;;2.78;1.05;;;29.20;84.20;;;;;;5033116;28;20083;-45
2022/06/11 12:46:15;;;;;;;6.80;2.45;;;29.20;85.70;;;;;;5032142;28;20100;-50
2022/06/11 12:48:59;;;;;;;5.35;2.50;;;29.10;86.80;;;;;;5033044;28;20369;-46
2022/06/11 12:52:10;;;;;;;14.57;8.38;;;28.60;87.00;;;;;;5031722;28;20071;-48
2022/06/11 12:54:45;;;;;;;5.20;2.97;;;28.10;86.30;;;;;;5032996;28;20022;-47
2022/06/11 12:57:34;;;;;;;8.52;3.25;;;27.50;88.90;;;;;;5031672;28;20030;-48
2022/06/11 13:00:11;;;;;;;11.75;9.43;;;27.30;90.00;;;;;;5032969;28;20029;-50
2022/06/11 13:02:47;;;;;;;4.72;1.63;;;27.40;89.30;;;;;;5032807;28;20021;-49
2022/06/11 13:05:39;;;;;;;3.70;1.65;;;27.40;88.90;;;;;;5032941;28;20029;-47
2022/06/11 13:08:21;;;;;;;8.40;3.40;;;27.00;90.40;;;;;;5033108;28;20036;-52
2022/06/11 13:11:01;;;;;;;33.08;21.45;;;26.80;89.50;;;;;;5033090;28;20021;-54
2022/06/11 13:13:35;;;;;;;6.28;4.28;;;26.80;90.10;;;;;;5031576;28;20049;-51
2022/06/11 13:16:16;;;;;;;9.57;5.30;;;26.70;90.60;;;;;;5033151;28;20057;-47
2022/06/11 13:18:41;;;;;;;7.93;5.37;;;26.80;91.10;;;;;;5033030;28;20044;-48
2022/06/11 13:21:28;;;;;;;2.55;1.60;;;26.70;90.90;;;;;;5032592;28;20034;-51
2022/06/11 13:24:19;;;;;;;6.28;1.50;;;26.40;90.20;;;;;;5032679;28;20020;-47